^^
Saratoga-Weather Station Historical Data
Daily Summary for August 8, 2021 Units:  Both    English   Metric
Daily Weekly Monthly Yearly Custom
  High: Low: Average:
Temperature: 69.3 °F /  20.7 °C 56.5 °F /  13.6 °C 61.7 °F /  16.5 °C
Dew Point: 58.5 °F /  14.7 °C 52.2 °F /  11.2 °C 54.9 °F /  12.7 °C
Humidity: 90% 56% 79%
Wind Speed: 12.1mph /  19.5km/h - 2.3mph /  3.7km/h
Wind Gust: 18mph /  29km/h - -
Wind- - WSW
Pressure: 30 in /  1015.9 hPa 29.7 in /  1006.4 hPa -
Precipitation: 0.1 in /  2.5 mm    
Historical Graphs
 
 
Tabular Data for August 8, 2021
Time Temperature Dew Point Pressure Wind Wind Speed Wind Gust Humidity Rainfall Rate (Hourly) solar
00:04 61.5 °F /  16.4 °C 57.4 °F /  14.1 °C 29.7in /  1006.4hPa West 2mph /  3.2km/h 3mph /  4.8km/h 86% 0in /  0.0mm 0 W/m2
00:09 61.3 °F /  16.3 °C 57.4 °F /  14.1 °C 29.7in /  1006.4hPa Calm   3mph /  4.8km/h 87% 0in /  0.0mm 0 W/m2
00:14 61.3 °F /  16.3 °C 57.4 °F /  14.1 °C 29.7in /  1006.4hPa NW 2mph /  3.2km/h 4mph /  6.4km/h 87% 0in /  0.0mm 0 W/m2
00:19 61.2 °F /  16.2 °C 57.2 °F /  14 °C 29.7in /  1006.4hPa WNW 2.9mph /  4.7km/h 5mph /  8km/h 87% 0in /  0.0mm 0 W/m2
00:24 61.2 °F /  16.2 °C 57.2 °F /  14 °C 29.7in /  1006.4hPa Calm   2mph /  3.2km/h 87% 0in /  0.0mm 0 W/m2
00:29 61.2 °F /  16.2 °C 57.2 °F /  14 °C 29.7in /  1006.4hPa NW 2mph /  3.2km/h 6mph /  9.7km/h 87% 0in /  0.0mm 0 W/m2
00:34 61.2 °F /  16.2 °C 57.2 °F /  14 °C 29.7in /  1006.8hPa West 2.9mph /  4.7km/h 8mph /  12.9km/h 87% 0in /  0.0mm 0 W/m2
00:39 61.2 °F /  16.2 °C 57.2 °F /  14 °C 29.7in /  1006.8hPa West 2mph /  3.2km/h 3mph /  4.8km/h 87% 0in /  0.0mm 0 W/m2
00:44 61.2 °F /  16.2 °C 57.2 °F /  14 °C 29.7in /  1006.8hPa ESE 2mph /  3.2km/h 3mph /  4.8km/h 87% 0in /  0.0mm 0 W/m2
00:49 61.2 °F /  16.2 °C 57 °F /  13.9 °C 29.7in /  1006.8hPa Calm   2mph /  3.2km/h 86% 0in /  0.0mm 0 W/m2
00:54 61.2 °F /  16.2 °C 57 °F /  13.9 °C 29.7in /  1006.8hPa West 0.9mph /  1.4km/h 3mph /  4.8km/h 86% 0in /  0.0mm 0 W/m2
00:59 61 °F /  16.1 °C 56.8 °F /  13.8 °C 29.7in /  1006.8hPa NW 2mph /  3.2km/h 3mph /  4.8km/h 86% 0in /  0.0mm 0 W/m2
01:04 61 °F /  16.1 °C 56.8 °F /  13.8 °C 29.7in /  1006.8hPa Calm   2mph /  3.2km/h 86% 0in /  0.0mm 0 W/m2
01:09 60.8 °F /  16 °C 56.3 °F /  13.5 °C 29.7in /  1007.1hPa NNW 2.9mph /  4.7km/h 5mph /  8km/h 85% 0in /  0.0mm 0 W/m2
01:14 60.6 °F /  15.9 °C 56.1 °F /  13.4 °C 29.7in /  1007.1hPa WSW 6.9mph /  11.1km/h 9mph /  14.5km/h 85% 0in /  0.0mm 0 W/m2
01:19 60.6 °F /  15.9 °C 55.8 °F /  13.2 °C 29.7in /  1007.1hPa NW 0.9mph /  1.4km/h 5mph /  8km/h 84% 0in /  0.0mm 0 W/m2
01:24 60.6 °F /  15.9 °C 55.8 °F /  13.2 °C 29.7in /  1007.1hPa WSW 2.9mph /  4.7km/h 9mph /  14.5km/h 84% 0in /  0.0mm 0 W/m2
01:29 60.6 °F /  15.9 °C 55.4 °F /  13 °C 29.7in /  1007.1hPa WSW 0.9mph /  1.4km/h 2mph /  3.2km/h 83% 0in /  0.0mm 0 W/m2
01:34 60.8 °F /  16 °C 55.6 °F /  13.1 °C 29.7in /  1007.1hPa WNW 2mph /  3.2km/h 4mph /  6.4km/h 83% 0in /  0.0mm 0 W/m2
01:39 60.8 °F /  16 °C 55.6 °F /  13.1 °C 29.7in /  1007.1hPa Calm   4mph /  6.4km/h 83% 0in /  0.0mm 0 W/m2
01:57 60.3 °F /  15.7 °C 55 °F /  12.8 °C 29.7in /  1007.1hPa Calm   1mph /  1.6km/h 83% 0in /  0.0mm 0 W/m2
02:02 60.1 °F /  15.6 °C 54.9 °F /  12.7 °C 29.7in /  1007.1hPa Calm   2mph /  3.2km/h 83% 0in /  0.0mm 0 W/m2
02:07 59.9 °F /  15.5 °C 55 °F /  12.8 °C 29.8in /  1007.5hPa Calm   2mph /  3.2km/h 84% 0in /  0.0mm 0 W/m2
02:12 59.7 °F /  15.4 °C 54.9 °F /  12.7 °C 29.8in /  1007.5hPa Calm   2mph /  3.2km/h 84% 0in /  0.0mm 0 W/m2
02:17 59.7 °F /  15.4 °C 55.2 °F /  12.9 °C 29.8in /  1007.5hPa NE 0.9mph /  1.4km/h 3mph /  4.8km/h 85% 0in /  0.0mm 0 W/m2
02:22 59.5 °F /  15.3 °C 55 °F /  12.8 °C 29.8in /  1007.5hPa NE 2mph /  3.2km/h 2mph /  3.2km/h 85% 0in /  0.0mm 0 W/m2
02:27 59.4 °F /  15.2 °C 54.9 °F /  12.7 °C 29.8in /  1007.5hPa NW 0.9mph /  1.4km/h 4mph /  6.4km/h 85% 0in /  0.0mm 0 W/m2
02:47 59.2 °F /  15.1 °C 55.4 °F /  13 °C 29.8in /  1007.5hPa West 0.9mph /  1.4km/h 2mph /  3.2km/h 87% 0in /  0.0mm 0 W/m2
02:52 59 °F /  15 °C 55.2 °F /  12.9 °C 29.8in /  1007.5hPa NNE 2.9mph /  4.7km/h 4mph /  6.4km/h 87% 0in /  0.0mm 0 W/m2
02:57 59 °F /  15 °C 55.2 °F /  12.9 °C 29.8in /  1007.8hPa ENE 0.9mph /  1.4km/h 3mph /  4.8km/h 87% 0in /  0.0mm 0 W/m2
03:02 59 °F /  15 °C 55.4 °F /  13 °C 29.8in /  1007.8hPa SW 0.9mph /  1.4km/h 4mph /  6.4km/h 88% 0in /  0.0mm 0 W/m2
03:07 59 °F /  15 °C 55.4 °F /  13 °C 29.8in /  1007.8hPa NW 4mph /  6.4km/h 4mph /  6.4km/h 88% 0in /  0.0mm 0 W/m2
03:12 59 °F /  15 °C 55.2 °F /  12.9 °C 29.8in /  1007.8hPa Calm   3mph /  4.8km/h 87% 0in /  0.0mm 0 W/m2
03:17 59 °F /  15 °C 55.2 °F /  12.9 °C 29.8in /  1007.8hPa Calm   3mph /  4.8km/h 87% 0in /  0.0mm 0 W/m2
03:22 59 °F /  15 °C 55.2 °F /  12.9 °C 29.8in /  1007.8hPa East 0.9mph /  1.4km/h 4mph /  6.4km/h 87% 0in /  0.0mm 0 W/m2
03:27 58.8 °F /  14.9 °C 55 °F /  12.8 °C 29.8in /  1007.8hPa WNW 0.9mph /  1.4km/h 2mph /  3.2km/h 87% 0in /  0.0mm 0 W/m2
03:32 58.8 °F /  14.9 °C 55 °F /  12.8 °C 29.8in /  1007.8hPa Calm   2mph /  3.2km/h 87% 0in /  0.0mm 0 W/m2
03:37 58.6 °F /  14.8 °C 55 °F /  12.8 °C 29.8in /  1007.8hPa North 0.9mph /  1.4km/h 2mph /  3.2km/h 88% 0in /  0.0mm 0 W/m2
03:42 58.6 °F /  14.8 °C 55 °F /  12.8 °C 29.8in /  1007.8hPa Calm   3mph /  4.8km/h 88% 0in /  0.0mm 0 W/m2
03:47 58.5 °F /  14.7 °C 54.9 °F /  12.7 °C 29.8in /  1007.8hPa Calm   4mph /  6.4km/h 88% 0in /  0.0mm 0 W/m2
03:52 58.5 °F /  14.7 °C 54.9 °F /  12.7 °C 29.8in /  1007.8hPa West 0.9mph /  1.4km/h 3mph /  4.8km/h 88% 0in /  0.0mm 0 W/m2
03:57 58.3 °F /  14.6 °C 54.7 °F /  12.6 °C 29.8in /  1007.8hPa South 2mph /  3.2km/h 2mph /  3.2km/h 88% 0in /  0.0mm 0 W/m2
04:02 58.3 °F /  14.6 °C 54.7 °F /  12.6 °C 29.8in /  1007.8hPa NE 0.9mph /  1.4km/h 3mph /  4.8km/h 88% 0in /  0.0mm 0 W/m2
04:07 58.1 °F /  14.5 °C 54.5 °F /  12.5 °C 29.8in /  1008.1hPa NW 2mph /  3.2km/h 2mph /  3.2km/h 88% 0in /  0.0mm 0 W/m2
04:12 58.1 °F /  14.5 °C 54.5 °F /  12.5 °C 29.8in /  1008.1hPa NW 0.9mph /  1.4km/h 2mph /  3.2km/h 88% 0in /  0.0mm 0 W/m2
04:17 58.1 °F /  14.5 °C 54.5 °F /  12.5 °C 29.8in /  1008.1hPa WNW 0.9mph /  1.4km/h 2mph /  3.2km/h 88% 0in /  0.0mm 0 W/m2
04:35 57.7 °F /  14.3 °C 54.1 °F /  12.3 °C 29.8in /  1008.1hPa NW 2mph /  3.2km/h 3mph /  4.8km/h 88% 0in /  0.0mm 0 W/m2
04:40 57.7 °F /  14.3 °C 54.1 °F /  12.3 °C 29.8in /  1008.5hPa Calm   2mph /  3.2km/h 88% 0in /  0.0mm 0 W/m2
04:45 57.7 °F /  14.3 °C 54.1 °F /  12.3 °C 29.8in /  1008.1hPa NW 2mph /  3.2km/h 2mph /  3.2km/h 88% 0in /  0.0mm 0 W/m2
04:50 57.6 °F /  14.2 °C 54 °F /  12.2 °C 29.8in /  1008.5hPa Calm   2mph /  3.2km/h 88% 0in /  0.0mm 0 W/m2
05:09 57.2 °F /  14 °C 54 °F /  12.2 °C 29.8in /  1008.5hPa SSW 2.9mph /  4.7km/h 3mph /  4.8km/h 89% 0in /  0.0mm 0 W/m2
05:14 57 °F /  13.9 °C 53.8 °F /  12.1 °C 29.8in /  1008.5hPa WSW 4.9mph /  7.9km/h 7mph /  11.3km/h 89% 0in /  0.0mm 0 W/m2
05:19 57.2 °F /  14 °C 54 °F /  12.2 °C 29.8in /  1008.5hPa WNW 2.9mph /  4.7km/h 4mph /  6.4km/h 89% 0in /  0.0mm 0 W/m2
05:24 57.2 °F /  14 °C 54 °F /  12.2 °C 29.8in /  1008.5hPa NW 5mph /  8km/h 5mph /  8km/h 89% 0in /  0.0mm 0 W/m2
05:29 57.4 °F /  14.1 °C 54.1 °F /  12.3 °C 29.8in /  1008.5hPa SSW 4.9mph /  7.9km/h 6mph /  9.7km/h 89% 0in /  0.0mm 0 W/m2
05:34 57.4 °F /  14.1 °C 54.1 °F /  12.3 °C 29.8in /  1008.5hPa West 2mph /  3.2km/h 4mph /  6.4km/h 89% 0in /  0.0mm 0 W/m2
05:39 57.6 °F /  14.2 °C 54.3 °F /  12.4 °C 29.8in /  1008.8hPa WSW 0.9mph /  1.4km/h 3mph /  4.8km/h 89% 0in /  0.0mm 0 W/m2
05:44 57.6 °F /  14.2 °C 54.3 °F /  12.4 °C 29.8in /  1008.8hPa NNW 2mph /  3.2km/h 7mph /  11.3km/h 89% 0in /  0.0mm 0 W/m2
05:49 57.6 °F /  14.2 °C 54.3 °F /  12.4 °C 29.8in /  1008.8hPa East 2mph /  3.2km/h 4mph /  6.4km/h 89% 0in /  0.0mm 0 W/m2
05:54 57.4 °F /  14.1 °C 54.1 °F /  12.3 °C 29.8in /  1008.8hPa WNW 2mph /  3.2km/h 7mph /  11.3km/h 89% 0in /  0.0mm 0 W/m2
05:59 57.4 °F /  14.1 °C 54.1 °F /  12.3 °C 29.8in /  1008.8hPa NW 2.9mph /  4.7km/h 6mph /  9.7km/h 89% 0in /  0.0mm 0 W/m2
06:04 57.2 °F /  14 °C 53.6 °F /  12 °C 29.8in /  1008.8hPa WNW 0.9mph /  1.4km/h 3mph /  4.8km/h 88% 0in /  0.0mm 0 W/m2
06:09 57 °F /  13.9 °C 53.8 °F /  12.1 °C 29.8in /  1008.8hPa NW 2mph /  3.2km/h 7mph /  11.3km/h 89% 0in /  0.0mm 0 W/m2
06:14 57 °F /  13.9 °C 53.8 °F /  12.1 °C 29.8in /  1008.8hPa NNW 2.9mph /  4.7km/h 6mph /  9.7km/h 89% 0in /  0.0mm 0 W/m2
06:19 56.8 °F /  13.8 °C 53.6 °F /  12 °C 29.8in /  1009.1hPa WNW 6.9mph /  11.1km/h 10mph /  16.1km/h 89% 0in /  0.0mm 5 W/m2
06:24 56.8 °F /  13.8 °C 53.6 °F /  12 °C 29.8in /  1009.1hPa West 4mph /  6.4km/h 6mph /  9.7km/h 89% 0in /  0.0mm 5 W/m2
06:29 56.8 °F /  13.8 °C 53.6 °F /  12 °C 29.8in /  1008.8hPa West 0.9mph /  1.4km/h 10mph /  16.1km/h 89% 0in /  0.0mm 7 W/m2
06:34 56.7 °F /  13.7 °C 53.4 °F /  11.9 °C 29.8in /  1009.1hPa NW 2mph /  3.2km/h 6mph /  9.7km/h 89% 0in /  0.0mm 9 W/m2
06:39 56.7 °F /  13.7 °C 53.4 °F /  11.9 °C 29.8in /  1009.1hPa WNW 10.1mph /  16.3km/h 10mph /  16.1km/h 89% 0in /  0.0mm 11 W/m2
06:44 56.5 °F /  13.6 °C 53.2 °F /  11.8 °C 29.8in /  1009.1hPa WSW 2mph /  3.2km/h 5mph /  8km/h 89% 0in /  0.0mm 14 W/m2
06:49 56.5 °F /  13.6 °C 53.2 °F /  11.8 °C 29.8in /  1009.1hPa West 4mph /  6.4km/h 4mph /  6.4km/h 89% 0in /  0.0mm 16 W/m2
06:54 56.5 °F /  13.6 °C 53.2 °F /  11.8 °C 29.8in /  1009.1hPa WSW 0.9mph /  1.4km/h 8mph /  12.9km/h 89% 0in /  0.0mm 18 W/m2
06:59 56.5 °F /  13.6 °C 53.2 °F /  11.8 °C 29.8in /  1009.5hPa NW 4.9mph /  7.9km/h 5mph /  8km/h 89% 0in /  0.0mm 21 W/m2
07:04 56.5 °F /  13.6 °C 53.2 °F /  11.8 °C 29.8in /  1009.1hPa NW 2.9mph /  4.7km/h 8mph /  12.9km/h 89% 0in /  0.0mm 21 W/m2
07:09 56.7 °F /  13.7 °C 53.4 °F /  11.9 °C 29.8in /  1009.5hPa North 0.9mph /  1.4km/h 4mph /  6.4km/h 89% 0in /  0.0mm 23 W/m2
07:14 56.7 °F /  13.7 °C 53.4 °F /  11.9 °C 29.8in /  1009.5hPa NE 2mph /  3.2km/h 2mph /  3.2km/h 89% 0in /  0.0mm 25 W/m2
07:19 56.7 °F /  13.7 °C 53.4 °F /  11.9 °C 29.8in /  1009.5hPa NNW 4mph /  6.4km/h 4mph /  6.4km/h 89% 0in /  0.0mm 28 W/m2
07:24 56.7 °F /  13.7 °C 53.4 °F /  11.9 °C 29.8in /  1009.5hPa ENE 2mph /  3.2km/h 2mph /  3.2km/h 89% 0in /  0.0mm 25 W/m2
07:29 56.7 °F /  13.7 °C 53.4 °F /  11.9 °C 29.8in /  1009.5hPa ESE 2mph /  3.2km/h 3mph /  4.8km/h 89% 0in /  0.0mm 33 W/m2
07:34 56.7 °F /  13.7 °C 53.4 °F /  11.9 °C 29.8in /  1009.5hPa NE 2.9mph /  4.7km/h 3mph /  4.8km/h 89% 0in /  0.0mm 35 W/m2
07:39 56.8 °F /  13.8 °C 53.6 °F /  12 °C 29.8in /  1009.8hPa SSE 0.9mph /  1.4km/h 5mph /  8km/h 89% 0in /  0.0mm 42 W/m2
07:57 57.4 °F /  14.1 °C 53.8 °F /  12.1 °C 29.8in /  1009.8hPa Calm   3mph /  4.8km/h 88% 0in /  0.0mm 42 W/m2
08:02 57.6 °F /  14.2 °C 53.8 °F /  12.1 °C 29.8in /  1009.8hPa NW 2.9mph /  4.7km/h 8mph /  12.9km/h 87% 0in /  0.0mm 49 W/m2
08:07 57.7 °F /  14.3 °C 54 °F /  12.2 °C 29.8in /  1009.8hPa NNW 0.9mph /  1.4km/h 3mph /  4.8km/h 87% 0in /  0.0mm 58 W/m2
08:12 58.3 °F /  14.6 °C 54.1 °F /  12.3 °C 29.8in /  1009.8hPa Calm   7mph /  11.3km/h 86% 0in /  0.0mm 70 W/m2
08:17 58.6 °F /  14.8 °C 54.5 °F /  12.5 °C 29.8in /  1009.8hPa West 6mph /  9.7km/h 10mph /  16.1km/h 86% 0in /  0.0mm 74 W/m2
08:22 58.6 °F /  14.8 °C 54.1 °F /  12.3 °C 29.8in /  1010.2hPa NW 2.9mph /  4.7km/h 6mph /  9.7km/h 85% 0in /  0.0mm 88 W/m2
08:27 59.2 °F /  15.1 °C 54.3 °F /  12.4 °C 29.8in /  1010.2hPa NW 0.9mph /  1.4km/h 10mph /  16.1km/h 84% 0in /  0.0mm 90 W/m2
08:32 59.5 °F /  15.3 °C 54.7 °F /  12.6 °C 29.8in /  1010.2hPa WSW 4mph /  6.4km/h 7mph /  11.3km/h 84% 0in /  0.0mm 91 W/m2
08:37 59.7 °F /  15.4 °C 54.9 °F /  12.7 °C 29.8in /  1010.2hPa WNW 0.9mph /  1.4km/h 9mph /  14.5km/h 84% 0in /  0.0mm 102 W/m2
08:42 60.1 °F /  15.6 °C 54.9 °F /  12.7 °C 29.8in /  1010.2hPa NW 4mph /  6.4km/h 8mph /  12.9km/h 83% 0in /  0.0mm 128 W/m2
08:47 60.3 °F /  15.7 °C 55 °F /  12.8 °C 29.8in /  1010.2hPa ESE 0.9mph /  1.4km/h 8mph /  12.9km/h 83% 0in /  0.0mm 234 W/m2
08:52 60.4 °F /  15.8 °C 54.9 °F /  12.7 °C 29.8in /  1010.5hPa SSE 2mph /  3.2km/h 9mph /  14.5km/h 82% 0in /  0.0mm 336 W/m2
08:57 60.6 °F /  15.9 °C 55 °F /  12.8 °C 29.8in /  1010.5hPa NNW 6mph /  9.7km/h 13mph /  20.9km/h 82% 0in /  0.0mm 134 W/m2
09:02 60.4 °F /  15.8 °C 54.9 °F /  12.7 °C 29.8in /  1010.5hPa WSW 4mph /  6.4km/h 7mph /  11.3km/h 82% 0in /  0.0mm 179 W/m2
09:07 60.4 °F /  15.8 °C 54.9 °F /  12.7 °C 29.8in /  1010.5hPa NW 2.9mph /  4.7km/h 9mph /  14.5km/h 82% 0in /  0.0mm 130 W/m2
09:12 60.4 °F /  15.8 °C 54.9 °F /  12.7 °C 29.8in /  1010.5hPa WNW 4.9mph /  7.9km/h 6mph /  9.7km/h 82% 0in /  0.0mm 111 W/m2
09:17 60.4 °F /  15.8 °C 55.2 °F /  12.9 °C 29.8in /  1010.5hPa WNW 0.9mph /  1.4km/h 2mph /  3.2km/h 83% 0in /  0.0mm 148 W/m2
09:22 60.3 °F /  15.7 °C 55 °F /  12.8 °C 29.8in /  1010.5hPa West 0.9mph /  1.4km/h 2mph /  3.2km/h 83% 0in /  0.0mm 163 W/m2
09:27 60.3 °F /  15.7 °C 55 °F /  12.8 °C 29.8in /  1010.5hPa NE 2mph /  3.2km/h 5mph /  8km/h 83% 0in /  0.0mm 265 W/m2
10:04 61.5 °F /  16.4 °C 56.3 °F /  13.5 °C 29.9in /  1010.8hPa West 2.9mph /  4.7km/h 4mph /  6.4km/h 83% 0in /  0.0mm 134 W/m2
10:09 61.3 °F /  16.3 °C 56.5 °F /  13.6 °C 29.9in /  1010.8hPa East 2mph /  3.2km/h 5mph /  8km/h 84% 0.01in /  0.2mm 128 W/m2
10:14 61.2 °F /  16.2 °C 56.7 °F /  13.7 °C 29.9in /  1010.8hPa Calm   1mph /  1.6km/h 85% 0.01in /  0.2mm 46 W/m2
10:19 61 °F /  16.1 °C 56.8 °F /  13.8 °C 29.9in /  1010.8hPa NW 0.9mph /  1.4km/h 5mph /  8km/h 86% 0.02in /  0.5mm 169 W/m2
10:24 61 °F /  16.1 °C 57 °F /  13.9 °C 29.9in /  1010.8hPa NW 0.9mph /  1.4km/h 3mph /  4.8km/h 87% 0.02in /  0.5mm 221 W/m2
10:29 61.2 °F /  16.2 °C 57.2 °F /  14 °C 29.9in /  1010.8hPa NW 2mph /  3.2km/h 3mph /  4.8km/h 87% 0.02in /  0.5mm 223 W/m2
10:34 61.3 °F /  16.3 °C 57.4 °F /  14.1 °C 29.9in /  1010.8hPa NNE 2mph /  3.2km/h 3mph /  4.8km/h 87% 0.02in /  0.5mm 149 W/m2
10:39 61.3 °F /  16.3 °C 57.2 °F /  14 °C 29.9in /  1010.8hPa Calm   3mph /  4.8km/h 86% 0.02in /  0.5mm 192 W/m2
10:44 61.5 °F /  16.4 °C 57.4 °F /  14.1 °C 29.9in /  1011.2hPa ENE 0.9mph /  1.4km/h 2mph /  3.2km/h 86% 0.02in /  0.5mm 287 W/m2
10:49 62.1 °F /  16.7 °C 57.7 °F /  14.3 °C 29.9in /  1011.2hPa Calm   3mph /  4.8km/h 86% 0.02in /  0.5mm 237 W/m2
10:54 62.4 °F /  16.9 °C 57.9 °F /  14.4 °C 29.9in /  1011.2hPa WNW 4mph /  6.4km/h 7mph /  11.3km/h 85% 0.02in /  0.5mm 281 W/m2
10:59 63 °F /  17.2 °C 58.5 °F /  14.7 °C 29.9in /  1011.2hPa West 2mph /  3.2km/h 3mph /  4.8km/h 85% 0.02in /  0.5mm 874 W/m2
11:04 63.1 °F /  17.3 °C 57.9 °F /  14.4 °C 29.9in /  1011.2hPa Calm   4mph /  6.4km/h 83% 0.02in /  0.5mm 795 W/m2
11:09 63.1 °F /  17.3 °C 57.2 °F /  14 °C 29.9in /  1011.2hPa North 2.9mph /  4.7km/h 4mph /  6.4km/h 81% 0.01in /  0.2mm 178 W/m2
11:14 62.8 °F /  17.1 °C 56.5 °F /  13.6 °C 29.9in /  1011.2hPa WNW 4mph /  6.4km/h 9mph /  14.5km/h 80% 0.01in /  0.2mm 100 W/m2
11:19 62.1 °F /  16.7 °C 56.5 °F /  13.6 °C 29.9in /  1011.2hPa NNW 0.9mph /  1.4km/h 5mph /  8km/h 82% 0in /  0.0mm 156 W/m2
11:24 61.9 °F /  16.6 °C 56.7 °F /  13.7 °C 29.9in /  1011.2hPa WNW 0.9mph /  1.4km/h 9mph /  14.5km/h 83% 0in /  0.0mm 380 W/m2
11:29 62.1 °F /  16.7 °C 57.2 °F /  14 °C 29.9in /  1011.2hPa WNW 2mph /  3.2km/h 3mph /  4.8km/h 84% 0in /  0.0mm 809 W/m2
11:34 62.8 °F /  17.1 °C 57.2 °F /  14 °C 29.9in /  1011.2hPa WNW 8.1mph /  13km/h 9mph /  14.5km/h 82% 0in /  0.0mm 232 W/m2
11:39 63.1 °F /  17.3 °C 56.5 °F /  13.6 °C 29.9in /  1011.2hPa NW 4mph /  6.4km/h 8mph /  12.9km/h 79% 0in /  0.0mm 236 W/m2
11:44 63.7 °F /  17.6 °C 57 °F /  13.9 °C 29.9in /  1011.5hPa WSW 2.9mph /  4.7km/h 9mph /  14.5km/h 79% 0.01in /  0.2mm 225 W/m2
11:49 62.6 °F /  17 °C 56.7 °F /  13.7 °C 29.9in /  1011.5hPa NW 2.9mph /  4.7km/h 8mph /  12.9km/h 81% 0.05in /  1.3mm 197 W/m2
11:54 61.7 °F /  16.5 °C 56.8 °F /  13.8 °C 29.9in /  1011.9hPa Calm   4mph /  6.4km/h 84% 0.05in /  1.3mm 163 W/m2
11:59 61.3 °F /  16.3 °C 56.5 °F /  13.6 °C 29.9in /  1011.9hPa NW 0.9mph /  1.4km/h 4mph /  6.4km/h 84% 0.05in /  1.3mm 169 W/m2
12:04 61.5 °F /  16.4 °C 57 °F /  13.9 °C 29.9in /  1011.9hPa NNW 2.9mph /  4.7km/h 9mph /  14.5km/h 85% 0.05in /  1.3mm 865 W/m2
12:09 61.9 °F /  16.6 °C 56.7 °F /  13.7 °C 29.9in /  1011.9hPa NW 2mph /  3.2km/h 7mph /  11.3km/h 83% 0.05in /  1.3mm 461 W/m2
12:14 62.2 °F /  16.8 °C 56.7 °F /  13.7 °C 29.9in /  1011.9hPa South 2.9mph /  4.7km/h 6mph /  9.7km/h 82% 0.05in /  1.3mm 306 W/m2
12:19 62.8 °F /  17.1 °C 57.2 °F /  14 °C 29.9in /  1011.9hPa NNW 8.1mph /  13km/h 8mph /  12.9km/h 82% 0.05in /  1.3mm 461 W/m2
12:24 63.1 °F /  17.3 °C 57.2 °F /  14 °C 29.9in /  1011.9hPa NNW 2mph /  3.2km/h 5mph /  8km/h 81% 0.05in /  1.3mm 1016 W/m2
12:29 63.9 °F /  17.7 °C 57.6 °F /  14.2 °C 29.9in /  1011.9hPa NW 4.9mph /  7.9km/h 9mph /  14.5km/h 80% 0.05in /  1.3mm 860 W/m2
12:34 64.2 °F /  17.9 °C 57.2 °F /  14 °C 29.9in /  1011.9hPa West 4mph /  6.4km/h 11mph /  17.7km/h 78% 0.05in /  1.3mm 896 W/m2
12:39 64.4 °F /  18 °C 56.7 °F /  13.7 °C 29.9in /  1011.5hPa WNW 0.9mph /  1.4km/h 9mph /  14.5km/h 76% 0.05in /  1.3mm 840 W/m2
12:44 64.2 °F /  17.9 °C 56.5 °F /  13.6 °C 29.9in /  1011.9hPa SW 2mph /  3.2km/h 4mph /  6.4km/h 76% 0.03in /  0.8mm 234 W/m2
12:49 64.2 °F /  17.9 °C 57.2 °F /  14 °C 29.9in /  1011.5hPa NW 4mph /  6.4km/h 8mph /  12.9km/h 78% 0in /  0.0mm 345 W/m2
12:54 64.2 °F /  17.9 °C 57.2 °F /  14 °C 29.9in /  1011.9hPa NW 6mph /  9.7km/h 14mph /  22.5km/h 78% 0in /  0.0mm 98 W/m2
12:59 62.6 °F /  17 °C 55.9 °F /  13.3 °C 29.9in /  1011.9hPa WSW 2.9mph /  4.7km/h 11mph /  17.7km/h 79% 0.01in /  0.2mm 77 W/m2
13:04 61.3 °F /  16.3 °C 55.4 °F /  13 °C 29.9in /  1011.9hPa WNW 2mph /  3.2km/h 14mph /  22.5km/h 81% 0.02in /  0.5mm 83 W/m2
13:09 61 °F /  16.1 °C 55.8 °F /  13.2 °C 29.9in /  1011.9hPa NW 0.9mph /  1.4km/h 5mph /  8km/h 83% 0.02in /  0.5mm 824 W/m2
13:14 61.3 °F /  16.3 °C 56.1 °F /  13.4 °C 29.9in /  1011.9hPa SE 0.9mph /  1.4km/h 3mph /  4.8km/h 83% 0.02in /  0.5mm 772 W/m2
13:19 62.2 °F /  16.8 °C 57.4 °F /  14.1 °C 29.9in /  1011.9hPa West 2.9mph /  4.7km/h 5mph /  8km/h 84% 0.02in /  0.5mm 940 W/m2
13:24 63 °F /  17.2 °C 57.4 °F /  14.1 °C 29.9in /  1011.9hPa NNW 0.9mph /  1.4km/h 2mph /  3.2km/h 82% 0.02in /  0.5mm 146 W/m2
13:29 63.3 °F /  17.4 °C 57 °F /  13.9 °C 29.9in /  1011.9hPa WSW 4mph /  6.4km/h 8mph /  12.9km/h 80% 0.02in /  0.5mm 236 W/m2
13:34 63.3 °F /  17.4 °C 56.3 °F /  13.5 °C 29.9in /  1011.9hPa West 4mph /  6.4km/h 7mph /  11.3km/h 78% 0.02in /  0.5mm 343 W/m2
13:40 63.3 °F /  17.4 °C 56.7 °F /  13.7 °C 29.9in /  1011.9hPa WSW 2mph /  3.2km/h 5mph /  8km/h 79% 0.02in /  0.5mm 316 W/m2
13:45 63.3 °F /  17.4 °C 56.7 °F /  13.7 °C 29.9in /  1011.9hPa WNW 2mph /  3.2km/h 5mph /  8km/h 79% 0.02in /  0.5mm 244 W/m2
13:50 63.1 °F /  17.3 °C 56.1 °F /  13.4 °C 29.9in /  1011.9hPa West 2.9mph /  4.7km/h 7mph /  11.3km/h 78% 0.02in /  0.5mm 132 W/m2
13:55 62.8 °F /  17.1 °C 55.8 °F /  13.2 °C 29.9in /  1012.2hPa West 6.9mph /  11.1km/h 10mph /  16.1km/h 78% 0.02in /  0.5mm 65 W/m2
14:00 61.5 °F /  16.4 °C 55.2 °F /  12.9 °C 29.9in /  1012.5hPa West 4mph /  6.4km/h 4mph /  6.4km/h 80% 0.02in /  0.5mm 146 W/m2
14:05 61 °F /  16.1 °C 55.4 °F /  13 °C 29.9in /  1012.5hPa NW 2.9mph /  4.7km/h 4mph /  6.4km/h 82% 0.01in /  0.2mm 279 W/m2
14:10 61 °F /  16.1 °C 56.1 °F /  13.4 °C 29.9in /  1012.5hPa WNW 2.9mph /  4.7km/h 4mph /  6.4km/h 84% 0.01in /  0.2mm 306 W/m2
14:15 61.2 °F /  16.2 °C 56.3 °F /  13.5 °C 29.9in /  1012.5hPa West 8.1mph /  13km/h 10mph /  16.1km/h 84% 0.02in /  0.5mm 348 W/m2
14:20 61.3 °F /  16.3 °C 56.5 °F /  13.6 °C 29.9in /  1012.5hPa WNW 6mph /  9.7km/h 7mph /  11.3km/h 84% 0.02in /  0.5mm 376 W/m2
14:25 61.9 °F /  16.6 °C 56.7 °F /  13.7 °C 29.9in /  1012.5hPa NW 10mph /  16.1km/h 10mph /  16.1km/h 83% 0.02in /  0.5mm 420 W/m2
14:30 62.4 °F /  16.9 °C 56.8 °F /  13.8 °C 29.9in /  1012.5hPa WNW 6.9mph /  11.1km/h 8mph /  12.9km/h 82% 0.02in /  0.5mm 425 W/m2
14:35 63 °F /  17.2 °C 57.7 °F /  14.3 °C 29.9in /  1012.5hPa NW 4mph /  6.4km/h 8mph /  12.9km/h 83% 0.02in /  0.5mm 902 W/m2
14:40 63.1 °F /  17.3 °C 56.8 °F /  13.8 °C 29.9in /  1012.5hPa WSW 6.9mph /  11.1km/h 13mph /  20.9km/h 80% 0.02in /  0.5mm 860 W/m2
14:45 63.5 °F /  17.5 °C 56.8 °F /  13.8 °C 29.9in /  1012.5hPa WNW 8.9mph /  14.3km/h 11mph /  17.7km/h 79% 0.02in /  0.5mm 881 W/m2
14:50 63.7 °F /  17.6 °C 57 °F /  13.9 °C 29.9in /  1012.5hPa West 6.9mph /  11.1km/h 18mph /  29km/h 79% 0.02in /  0.5mm 935 W/m2
14:55 63.9 °F /  17.7 °C 56.8 °F /  13.8 °C 29.9in /  1012.5hPa West 8.1mph /  13km/h 10mph /  16.1km/h 78% 0.02in /  0.5mm 230 W/m2
15:00 64.4 °F /  18 °C 56.7 °F /  13.7 °C 29.9in /  1012.5hPa NW 4mph /  6.4km/h 14mph /  22.5km/h 76% 0.01in /  0.2mm 230 W/m2
15:05 64.9 °F /  18.3 °C 55.8 °F /  13.2 °C 29.9in /  1012.5hPa WSW 6.9mph /  11.1km/h 9mph /  14.5km/h 72% 0.01in /  0.2mm 874 W/m2
15:10 65.3 °F /  18.5 °C 55.2 °F /  12.9 °C 29.9in /  1012.5hPa WSW 8.1mph /  13km/h 10mph /  16.1km/h 70% 0.01in /  0.2mm 837 W/m2
15:15 65.7 °F /  18.7 °C 55.2 °F /  12.9 °C 29.9in /  1012.5hPa West 2.9mph /  4.7km/h 8mph /  12.9km/h 69% 0in /  0.0mm 868 W/m2
15:20 66.2 °F /  19 °C 55.4 °F /  13 °C 29.9in /  1012.5hPa WSW 12.1mph /  19.5km/h 13mph /  20.9km/h 68% 0in /  0.0mm 879 W/m2
15:25 66.4 °F /  19.1 °C 55 °F /  12.8 °C 29.9in /  1012.5hPa WSW 6mph /  9.7km/h 10mph /  16.1km/h 67% 0in /  0.0mm 879 W/m2
15:30 66.4 °F /  19.1 °C 55 °F /  12.8 °C 29.9in /  1012.5hPa NW 4.9mph /  7.9km/h 15mph /  24.1km/h 67% 0in /  0.0mm 879 W/m2
15:35 66.4 °F /  19.1 °C 54.7 °F /  12.6 °C 29.9in /  1012.5hPa SW 4mph /  6.4km/h 10mph /  16.1km/h 66% 0in /  0.0mm 598 W/m2
15:40 66.7 °F /  19.3 °C 55 °F /  12.8 °C 29.9in /  1012.5hPa NW 0.9mph /  1.4km/h 15mph /  24.1km/h 66% 0in /  0.0mm 874 W/m2
15:45 67.5 °F /  19.7 °C 54.5 °F /  12.5 °C 29.9in /  1012.9hPa Calm   15mph /  24.1km/h 63% 0in /  0.0mm 793 W/m2
15:50 67.5 °F /  19.7 °C 53.6 °F /  12 °C 29.9in /  1012.9hPa WSW 6mph /  9.7km/h 8mph /  12.9km/h 61% 0in /  0.0mm 780 W/m2
15:55 67.6 °F /  19.8 °C 54.1 °F /  12.3 °C 29.9in /  1012.9hPa West 2.9mph /  4.7km/h 9mph /  14.5km/h 62% 0in /  0.0mm 777 W/m2
16:00 67.6 °F /  19.8 °C 53.2 °F /  11.8 °C 29.9in /  1012.9hPa NW 2.9mph /  4.7km/h 12mph /  19.3km/h 60% 0in /  0.0mm 800 W/m2
16:05 67.6 °F /  19.8 °C 53.8 °F /  12.1 °C 29.9in /  1012.9hPa NE 2mph /  3.2km/h 8mph /  12.9km/h 61% 0in /  0.0mm 784 W/m2
16:10 67.8 °F /  19.9 °C 53.4 °F /  11.9 °C 29.9in /  1012.9hPa NW 6mph /  9.7km/h 12mph /  19.3km/h 60% 0in /  0.0mm 742 W/m2
16:15 67.6 °F /  19.8 °C 53.8 °F /  12.1 °C 29.9in /  1012.9hPa West 0.9mph /  1.4km/h 6mph /  9.7km/h 61% 0in /  0.0mm 729 W/m2
16:20 67.5 °F /  19.7 °C 53.6 °F /  12 °C 29.9in /  1012.9hPa NNW 6mph /  9.7km/h 15mph /  24.1km/h 61% 0in /  0.0mm 724 W/m2
16:25 67.3 °F /  19.6 °C 54.3 °F /  12.4 °C 29.9in /  1012.9hPa WNW 2.9mph /  4.7km/h 9mph /  14.5km/h 63% 0in /  0.0mm 712 W/m2
16:30 67.5 °F /  19.7 °C 54.5 °F /  12.5 °C 29.9in /  1012.9hPa East 2mph /  3.2km/h 15mph /  24.1km/h 63% 0in /  0.0mm 726 W/m2
16:35 67.6 °F /  19.8 °C 54.1 °F /  12.3 °C 29.9in /  1012.9hPa NE 2mph /  3.2km/h 6mph /  9.7km/h 62% 0in /  0.0mm 765 W/m2
16:40 68 °F /  20 °C 54.5 °F /  12.5 °C 29.9in /  1013.2hPa South 6mph /  9.7km/h 9mph /  14.5km/h 62% 0in /  0.0mm 793 W/m2
16:45 67.6 °F /  19.8 °C 55 °F /  12.8 °C 29.9in /  1012.9hPa WNW 8.1mph /  13km/h 8mph /  12.9km/h 64% 0in /  0.0mm 120 W/m2
16:50 67.5 °F /  19.7 °C 54.9 °F /  12.7 °C 29.9in /  1013.2hPa North 0.9mph /  1.4km/h 7mph /  11.3km/h 64% 0in /  0.0mm 735 W/m2
16:55 67.3 °F /  19.6 °C 53.4 °F /  11.9 °C 29.9in /  1013.2hPa SSE 2mph /  3.2km/h 10mph /  16.1km/h 61% 0in /  0.0mm 137 W/m2
17:00 66.9 °F /  19.4 °C 54 °F /  12.2 °C 29.9in /  1013.2hPa WNW 2.9mph /  4.7km/h 6mph /  9.7km/h 63% 0in /  0.0mm 141 W/m2
17:05 66.9 °F /  19.4 °C 53.4 °F /  11.9 °C 29.9in /  1013.2hPa WNW 0.9mph /  1.4km/h 8mph /  12.9km/h 62% 0in /  0.0mm 211 W/m2
17:10 66.9 °F /  19.4 °C 53.4 °F /  11.9 °C 29.9in /  1013.2hPa WNW 2mph /  3.2km/h 9mph /  14.5km/h 62% 0in /  0.0mm 652 W/m2
17:15 67.5 °F /  19.7 °C 53.6 °F /  12 °C 29.9in /  1013.2hPa North 2.9mph /  4.7km/h 9mph /  14.5km/h 61% 0in /  0.0mm 664 W/m2
17:20 67.8 °F /  19.9 °C 54 °F /  12.2 °C 29.9in /  1013.2hPa North 4mph /  6.4km/h 9mph /  14.5km/h 61% 0in /  0.0mm 598 W/m2
17:25 68.4 °F /  20.2 °C 55.2 °F /  12.9 °C 29.9in /  1013.2hPa WSW 4mph /  6.4km/h 7mph /  11.3km/h 63% 0in /  0.0mm 594 W/m2
17:30 68.5 °F /  20.3 °C 54.1 °F /  12.3 °C 29.9in /  1013.2hPa NW 4mph /  6.4km/h 7mph /  11.3km/h 60% 0in /  0.0mm 615 W/m2
17:35 68.5 °F /  20.3 °C 53.6 °F /  12 °C 29.9in /  1013.2hPa NNE 2.9mph /  4.7km/h 5mph /  8km/h 59% 0in /  0.0mm 615 W/m2
17:40 69.1 °F /  20.6 °C 54.7 °F /  12.6 °C 29.9in /  1013.2hPa NNW 0.9mph /  1.4km/h 3mph /  4.8km/h 60% 0in /  0.0mm 594 W/m2
17:45 69.3 °F /  20.7 °C 54.3 °F /  12.4 °C 29.9in /  1013.2hPa NW 2mph /  3.2km/h 11mph /  17.7km/h 59% 0in /  0.0mm 566 W/m2
17:50 68.7 °F /  20.4 °C 52.3 °F /  11.3 °C 29.9in /  1013.2hPa NW 2mph /  3.2km/h 9mph /  14.5km/h 56% 0in /  0.0mm 547 W/m2
17:55 68.5 °F /  20.3 °C 52.7 °F /  11.5 °C 29.9in /  1013.2hPa SW 2.9mph /  4.7km/h 6mph /  9.7km/h 57% 0in /  0.0mm 443 W/m2
18:00 68.4 °F /  20.2 °C 53.4 °F /  11.9 °C 29.9in /  1013.5hPa NW 2mph /  3.2km/h 8mph /  12.9km/h 59% 0in /  0.0mm 220 W/m2
18:05 67.8 °F /  19.9 °C 52.9 °F /  11.6 °C 29.9in /  1013.5hPa NW 2.9mph /  4.7km/h 12mph /  19.3km/h 59% 0in /  0.0mm 527 W/m2
18:10 68 °F /  20 °C 53.6 °F /  12 °C 29.9in /  1013.5hPa NNW 0.9mph /  1.4km/h 4mph /  6.4km/h 60% 0in /  0.0mm 417 W/m2
18:15 68.2 °F /  20.1 °C 53.8 °F /  12.1 °C 29.9in /  1013.5hPa NNW 2mph /  3.2km/h 12mph /  19.3km/h 60% 0in /  0.0mm 276 W/m2
18:20 67.8 °F /  19.9 °C 53.4 °F /  11.9 °C 29.9in /  1013.5hPa WNW 0.9mph /  1.4km/h 5mph /  8km/h 60% 0in /  0.0mm 141 W/m2
18:25 67.3 °F /  19.6 °C 52.5 °F /  11.4 °C 29.9in /  1013.9hPa NW 2mph /  3.2km/h 8mph /  12.9km/h 59% 0in /  0.0mm 209 W/m2
18:30 66.7 °F /  19.3 °C 52.3 °F /  11.3 °C 29.9in /  1013.9hPa WSW 2.9mph /  4.7km/h 7mph /  11.3km/h 60% 0in /  0.0mm 199 W/m2
18:35 66.4 °F /  19.1 °C 52.2 °F /  11.2 °C 29.9in /  1013.9hPa WSW 4mph /  6.4km/h 7mph /  11.3km/h 60% 0in /  0.0mm 158 W/m2
18:40 66.2 °F /  19 °C 52.3 °F /  11.3 °C 29.9in /  1013.9hPa SW 2mph /  3.2km/h 10mph /  16.1km/h 61% 0in /  0.0mm 243 W/m2
18:45 66 °F /  18.9 °C 52.7 °F /  11.5 °C 29.9in /  1013.9hPa North 2.9mph /  4.7km/h 4mph /  6.4km/h 62% 0in /  0.0mm 158 W/m2
18:50 66 °F /  18.9 °C 52.7 °F /  11.5 °C 29.9in /  1013.9hPa WNW 8.1mph /  13km/h 12mph /  19.3km/h 62% 0in /  0.0mm 118 W/m2
18:55 65.7 °F /  18.7 °C 52.7 °F /  11.5 °C 29.9in /  1013.9hPa WNW 2.9mph /  4.7km/h 10mph /  16.1km/h 63% 0in /  0.0mm 104 W/m2
19:00 65.5 °F /  18.6 °C 53.4 °F /  11.9 °C 29.9in /  1013.9hPa West 6mph /  9.7km/h 8mph /  12.9km/h 65% 0in /  0.0mm 125 W/m2
19:05 65.5 °F /  18.6 °C 53.8 °F /  12.1 °C 30in /  1014.2hPa WNW 4mph /  6.4km/h 5mph /  8km/h 66% 0in /  0.0mm 169 W/m2
19:10 65.8 °F /  18.8 °C 54.1 °F /  12.3 °C 30in /  1014.2hPa NNW 2.9mph /  4.7km/h 4mph /  6.4km/h 66% 0in /  0.0mm 339 W/m2
19:15 66.6 °F /  19.2 °C 54.9 °F /  12.7 °C 30in /  1014.2hPa WNW 4.9mph /  7.9km/h 7mph /  11.3km/h 66% 0in /  0.0mm 283 W/m2
19:21 66.9 °F /  19.4 °C 54.9 °F /  12.7 °C 30in /  1014.2hPa Calm   4mph /  6.4km/h 65% 0in /  0.0mm 239 W/m2
19:26 67.3 °F /  19.6 °C 54.3 °F /  12.4 °C 30in /  1014.2hPa WNW 2.9mph /  4.7km/h 5mph /  8km/h 63% 0in /  0.0mm 207 W/m2
19:31 67.3 °F /  19.6 °C 54.3 °F /  12.4 °C 30in /  1014.2hPa NNW 4mph /  6.4km/h 4mph /  6.4km/h 63% 0in /  0.0mm 158 W/m2
19:36 66.7 °F /  19.3 °C 53.2 °F /  11.8 °C 30in /  1014.2hPa WNW 2mph /  3.2km/h 5mph /  8km/h 62% 0in /  0.0mm 149 W/m2
19:41 66.6 °F /  19.2 °C 54 °F /  12.2 °C 30in /  1014.2hPa NW 2mph /  3.2km/h 6mph /  9.7km/h 64% 0in /  0.0mm 153 W/m2
19:46 66.4 °F /  19.1 °C 53.8 °F /  12.1 °C 30in /  1014.2hPa Calm   4mph /  6.4km/h 64% 0in /  0.0mm 153 W/m2
19:51 66.4 °F /  19.1 °C 54.3 °F /  12.4 °C 30in /  1014.2hPa Calm   3mph /  4.8km/h 65% 0in /  0.0mm 148 W/m2
19:56 66.4 °F /  19.1 °C 54.3 °F /  12.4 °C 30in /  1014.2hPa NNW 2mph /  3.2km/h 5mph /  8km/h 65% 0in /  0.0mm 135 W/m2
20:01 66.4 °F /  19.1 °C 54.3 °F /  12.4 °C 30in /  1014.2hPa NW 0.9mph /  1.4km/h 1mph /  1.6km/h 65% 0in /  0.0mm 121 W/m2
20:06 66.6 °F /  19.2 °C 54.5 °F /  12.5 °C 30in /  1014.2hPa NW 0.9mph /  1.4km/h 5mph /  8km/h 65% 0in /  0.0mm 97 W/m2
20:11 66.6 °F /  19.2 °C 54.5 °F /  12.5 °C 30in /  1014.2hPa Calm   1mph /  1.6km/h 65% 0in /  0.0mm 74 W/m2
20:16 66.6 °F /  19.2 °C 54.9 °F /  12.7 °C 30in /  1014.2hPa Calm   2mph /  3.2km/h 66% 0in /  0.0mm 58 W/m2
20:21 66.2 °F /  19 °C 54.5 °F /  12.5 °C 30in /  1014.6hPa SSW 0.9mph /  1.4km/h 2mph /  3.2km/h 66% 0in /  0.0mm 21 W/m2
20:26 65.3 °F /  18.5 °C 54.1 °F /  12.3 °C 30in /  1014.6hPa WNW 0.9mph /  1.4km/h 2mph /  3.2km/h 67% 0in /  0.0mm 23 W/m2
20:31 64.9 °F /  18.3 °C 54.5 °F /  12.5 °C 30in /  1014.6hPa Calm   1mph /  1.6km/h 69% 0in /  0.0mm 21 W/m2
20:36 64.4 °F /  18 °C 54.3 °F /  12.4 °C 30in /  1014.6hPa Calm   1mph /  1.6km/h 70% 0in /  0.0mm 19 W/m2
20:41 63.9 °F /  17.7 °C 54.3 °F /  12.4 °C 30in /  1014.6hPa ESE 0.9mph /  1.4km/h 3mph /  4.8km/h 71% 0in /  0.0mm 18 W/m2
20:46 63.3 °F /  17.4 °C 54.1 °F /  12.3 °C 30in /  1014.6hPa Calm   1mph /  1.6km/h 72% 0in /  0.0mm 12 W/m2
20:51 63 °F /  17.2 °C 54.5 °F /  12.5 °C 30in /  1014.6hPa NE 0.9mph /  1.4km/h 2mph /  3.2km/h 74% 0in /  0.0mm 11 W/m2
20:56 62.4 °F /  16.9 °C 54 °F /  12.2 °C 30in /  1014.6hPa NW 0.9mph /  1.4km/h 3mph /  4.8km/h 74% 0in /  0.0mm 9 W/m2
21:01 62.2 °F /  16.8 °C 54.5 °F /  12.5 °C 30in /  1014.6hPa NW 0.9mph /  1.4km/h 1mph /  1.6km/h 76% 0in /  0.0mm 5 W/m2
21:06 61.9 °F /  16.6 °C 54.3 °F /  12.4 °C 30in /  1014.9hPa SW 2mph /  3.2km/h 3mph /  4.8km/h 76% 0in /  0.0mm 0 W/m2
21:11 61.3 °F /  16.3 °C 54.1 °F /  12.3 °C 30in /  1014.9hPa North 0.9mph /  1.4km/h 3mph /  4.8km/h 77% 0in /  0.0mm 0 W/m2
21:16 61.5 °F /  16.4 °C 54.3 °F /  12.4 °C 30in /  1014.9hPa WNW 0.9mph /  1.4km/h 2mph /  3.2km/h 77% 0in /  0.0mm 0 W/m2
21:21 61.3 °F /  16.3 °C 54.1 °F /  12.3 °C 30in /  1014.9hPa Calm   1mph /  1.6km/h 77% 0in /  0.0mm 0 W/m2
21:26 61 °F /  16.1 °C 53.8 °F /  12.1 °C 30in /  1014.9hPa NE 0.9mph /  1.4km/h 2mph /  3.2km/h 77% 0in /  0.0mm 0 W/m2
21:31 60.6 °F /  15.9 °C 54.1 °F /  12.3 °C 30in /  1014.9hPa NE 0.9mph /  1.4km/h 2mph /  3.2km/h 79% 0in /  0.0mm 0 W/m2
21:36 60.1 °F /  15.6 °C 54 °F /  12.2 °C 30in /  1014.9hPa Calm   2mph /  3.2km/h 80% 0in /  0.0mm 0 W/m2
21:41 59.5 °F /  15.3 °C 53.8 °F /  12.1 °C 30in /  1014.9hPa Calm   2mph /  3.2km/h 81% 0in /  0.0mm 0 W/m2
21:46 59.2 °F /  15.1 °C 53.6 °F /  12 °C 30in /  1015.2hPa Calm     82% 0in /  0.0mm 0 W/m2
21:51 58.8 °F /  14.9 °C 53.4 °F /  11.9 °C 30in /  1015.2hPa NNW 0.9mph /  1.4km/h 2mph /  3.2km/h 82% 0in /  0.0mm 0 W/m2
21:56 58.6 °F /  14.8 °C 53.4 °F /  11.9 °C 30in /  1015.2hPa Calm   2mph /  3.2km/h 83% 0in /  0.0mm 0 W/m2
22:01 58.5 °F /  14.7 °C 53.2 °F /  11.8 °C 30in /  1015.2hPa Calm     83% 0in /  0.0mm 0 W/m2
22:06 58.3 °F /  14.6 °C 53.1 °F /  11.7 °C 30in /  1015.2hPa Calm     83% 0in /  0.0mm 0 W/m2
22:11 58.1 °F /  14.5 °C 53.2 °F /  11.8 °C 30in /  1015.2hPa Calm     84% 0in /  0.0mm 0 W/m2
22:16 57.9 °F /  14.4 °C 53.4 °F /  11.9 °C 30in /  1015.2hPa NNW 0.9mph /  1.4km/h 1mph /  1.6km/h 85% 0in /  0.0mm 0 W/m2
22:21 57.9 °F /  14.4 °C 53.4 °F /  11.9 °C 30in /  1015.6hPa Calm   1mph /  1.6km/h 85% 0in /  0.0mm 0 W/m2
22:26 57.7 °F /  14.3 °C 53.2 °F /  11.8 °C 30in /  1015.6hPa Calm   1mph /  1.6km/h 85% 0in /  0.0mm 0 W/m2
22:31 57.7 °F /  14.3 °C 53.2 °F /  11.8 °C 30in /  1015.6hPa Calm   1mph /  1.6km/h 85% 0in /  0.0mm 0 W/m2
22:36 57.6 °F /  14.2 °C 53.4 °F /  11.9 °C 30in /  1015.6hPa NE 0.9mph /  1.4km/h 1mph /  1.6km/h 86% 0in /  0.0mm 0 W/m2
22:41 57.4 °F /  14.1 °C 53.2 °F /  11.8 °C 30in /  1015.6hPa Calm   1mph /  1.6km/h 86% 0in /  0.0mm 0 W/m2
22:46 57.2 °F /  14 °C 53.4 °F /  11.9 °C 30in /  1015.6hPa Calm   2mph /  3.2km/h 87% 0in /  0.0mm 0 W/m2
22:51 57 °F /  13.9 °C 53.2 °F /  11.8 °C 30in /  1015.6hPa Calm   2mph /  3.2km/h 87% 0in /  0.0mm 0 W/m2
22:56 57 °F /  13.9 °C 53.4 °F /  11.9 °C 30in /  1015.6hPa Calm   1mph /  1.6km/h 88% 0in /  0.0mm 0 W/m2
23:01 56.8 °F /  13.8 °C 53.2 °F /  11.8 °C 30in /  1015.6hPa Calm   2mph /  3.2km/h 88% 0in /  0.0mm 0 W/m2
23:06 56.8 °F /  13.8 °C 53.2 °F /  11.8 °C 30in /  1015.6hPa Calm     88% 0in /  0.0mm 0 W/m2
23:11 56.7 °F /  13.7 °C 53.4 °F /  11.9 °C 30in /  1015.6hPa North 0.9mph /  1.4km/h 2mph /  3.2km/h 89% 0in /  0.0mm 0 W/m2
23:16 56.7 °F /  13.7 °C 53.4 °F /  11.9 °C 30in /  1015.6hPa Calm     89% 0in /  0.0mm 0 W/m2
23:21 56.7 °F /  13.7 °C 53.4 °F /  11.9 °C 30in /  1015.6hPa Calm   2mph /  3.2km/h 89% 0in /  0.0mm 0 W/m2
23:26 56.7 °F /  13.7 °C 53.4 °F /  11.9 °C 30in /  1015.6hPa Calm     89% 0in /  0.0mm 0 W/m2
23:31 56.7 °F /  13.7 °C 53.4 °F /  11.9 °C 30in /  1015.9hPa Calm     89% 0in /  0.0mm 0 W/m2
23:36 56.5 °F /  13.6 °C 53.2 °F /  11.8 °C 30in /  1015.9hPa Calm     89% 0in /  0.0mm 0 W/m2
23:41 56.5 °F /  13.6 °C 53.2 °F /  11.8 °C 30in /  1015.9hPa North 0.9mph /  1.4km/h 2mph /  3.2km/h 89% 0in /  0.0mm 0 W/m2
23:46 56.5 °F /  13.6 °C 53.6 °F /  12 °C 30in /  1015.9hPa Calm   1mph /  1.6km/h 90% 0in /  0.0mm 0 W/m2
23:51 56.7 °F /  13.7 °C 53.4 °F /  11.9 °C 30in /  1015.6hPa Calm     89% 0in /  0.0mm 0 W/m2
23:56 56.8 °F /  13.8 °C 53.6 °F /  12 °C 30in /  1015.6hPa Calm     89% 0in /  0.0mm 0 W/m2
Juneau County Weather
Compliments of Weather Underground - 4 mb